sensor_id;sensor_type;location;lat;lon;timestamp;temperature;humidity
75357;HTU21D;63946;51.986;5.930;2023-08-20T06:14:17;20.92;69.49
75357;HTU21D;63946;51.986;5.930;2023-08-20T06:16:46;20.98;69.29
75357;HTU21D;63946;51.986;5.930;2023-08-20T06:19:15;21.00;69.17
75357;HTU21D;63946;51.986;5.930;2023-08-20T06:21:44;21.02;68.99
75357;HTU21D;63946;51.986;5.930;2023-08-20T06:24:12;21.00;68.87
75357;HTU21D;63946;51.986;5.930;2023-08-20T06:26:41;20.99;68.80
75357;HTU21D;63946;51.986;5.930;2023-08-20T06:29:10;21.00;68.63
75357;HTU21D;63946;51.986;5.930;2023-08-20T06:31:40;21.02;68.31
75357;HTU21D;63946;51.986;5.930;2023-08-20T06:34:09;21.03;68.10
75357;HTU21D;63946;51.986;5.930;2023-08-20T06:36:38;21.05;67.93
75357;HTU21D;63946;51.986;5.930;2023-08-20T06:39:07;21.07;67.89
75357;HTU21D;63946;51.986;5.930;2023-08-20T06:41:36;21.09;67.81
75357;HTU21D;63946;51.986;5.930;2023-08-20T06:44:16;21.14;67.67
75357;HTU21D;63946;51.986;5.930;2023-08-20T06:46:46;21.20;67.55
75357;HTU21D;63946;51.986;5.930;2023-08-20T06:49:15;21.29;67.33
75357;HTU21D;63946;51.986;5.930;2023-08-20T06:51:46;21.34;66.91
75357;HTU21D;63946;51.986;5.930;2023-08-20T06:54:15;21.39;66.71
75357;HTU21D;63946;51.986;5.930;2023-08-20T06:56:44;21.49;66.40
75357;HTU21D;63946;51.986;5.930;2023-08-20T06:59:13;21.57;65.99
75357;HTU21D;63946;51.986;5.930;2023-08-20T07:01:42;21.65;65.68
75357;HTU21D;63946;51.986;5.930;2023-08-20T07:04:11;21.78;65.33
75357;HTU21D;63946;51.986;5.930;2023-08-20T07:06:40;21.89;65.12
75357;HTU21D;63946;51.986;5.930;2023-08-20T07:09:09;22.06;64.88
75357;HTU21D;63946;51.986;5.930;2023-08-20T07:11:37;22.25;64.27
75357;HTU21D;63946;51.986;5.930;2023-08-20T07:14:06;22.44;63.90
75357;HTU21D;63946;51.986;5.930;2023-08-20T07:16:35;22.64;63.35
75357;HTU21D;63946;51.986;5.930;2023-08-20T07:19:04;22.82;62.81
75357;HTU21D;63946;51.986;5.930;2023-08-20T07:21:32;23.00;62.59
75357;HTU21D;63946;51.986;5.930;2023-08-20T07:24:01;23.16;61.73
75357;HTU21D;63946;51.986;5.930;2023-08-20T07:26:30;23.28;61.31
75357;HTU21D;63946;51.986;5.930;2023-08-20T07:28:59;23.43;61.28
75357;HTU21D;63946;51.986;5.930;2023-08-20T07:31:30;23.64;61.01
75357;HTU21D;63946;51.986;5.930;2023-08-20T07:34:00;23.77;60.89
75357;HTU21D;63946;51.986;5.930;2023-08-20T07:36:30;23.88;60.28
75357;HTU21D;63946;51.986;5.930;2023-08-20T07:38:59;23.97;60.18
75357;HTU21D;63946;51.986;5.930;2023-08-20T07:41:28;24.11;59.78
75357;HTU21D;63946;51.986;5.930;2023-08-20T07:43:57;24.18;59.36
75357;HTU21D;63946;51.986;5.930;2023-08-20T07:46:26;24.25;59.02
75357;HTU21D;63946;51.986;5.930;2023-08-20T07:48:55;24.32;58.82
75357;HTU21D;63946;51.986;5.930;2023-08-20T07:51:24;24.41;58.58
75357;HTU21D;63946;51.986;5.930;2023-08-20T07:53:53;24.49;58.15
75357;HTU21D;63946;51.986;5.930;2023-08-20T07:56:23;24.57;57.71
75357;HTU21D;63946;51.986;5.930;2023-08-20T07:58:52;24.60;57.55
75357;HTU21D;63946;51.986;5.930;2023-08-20T08:01:21;24.63;57.68
75357;HTU21D;63946;51.986;5.930;2023-08-20T08:03:50;24.68;57.39
75357;HTU21D;63946;51.986;5.930;2023-08-20T08:06:18;24.72;57.07
75357;HTU21D;63946;51.986;5.930;2023-08-20T08:08:48;24.76;56.74
75357;HTU21D;63946;51.986;5.930;2023-08-20T08:11:17;24.77;56.32
75357;HTU21D;63946;51.986;5.930;2023-08-20T08:13:46;24.76;56.23
75357;HTU21D;63946;51.986;5.930;2023-08-20T08:16:15;24.74;56.22
75357;HTU21D;63946;51.986;5.930;2023-08-20T08:18:45;24.66;56.10
75357;HTU21D;63946;51.986;5.930;2023-08-20T08:21:14;24.64;56.02
75357;HTU21D;63946;51.986;5.930;2023-08-20T08:23:43;24.65;56.09
75357;HTU21D;63946;51.986;5.930;2023-08-20T08:26:12;24.71;55.94
75357;HTU21D;63946;51.986;5.930;2023-08-20T08:28:41;24.80;55.59
75357;HTU21D;63946;51.986;5.930;2023-08-20T08:31:09;24.83;55.31
75357;HTU21D;63946;51.986;5.930;2023-08-20T08:33:38;24.71;55.10
75357;HTU21D;63946;51.986;5.930;2023-08-20T08:36:07;24.73;54.85
75357;HTU21D;63946;51.986;5.930;2023-08-20T08:38:37;24.76;54.71
75357;HTU21D;63946;51.986;5.930;2023-08-20T08:41:10;24.72;54.59
75357;HTU21D;63946;51.986;5.930;2023-08-20T08:43:40;24.80;54.47
75357;HTU21D;63946;51.986;5.930;2023-08-20T08:46:13;24.92;53.97
75357;HTU21D;63946;51.986;5.930;2023-08-20T08:48:43;25.05;53.98
75357;HTU21D;63946;51.986;5.930;2023-08-20T08:51:13;25.13;53.62
75357;HTU21D;63946;51.986;5.930;2023-08-20T08:53:43;25.19;53.55
75357;HTU21D;63946;51.986;5.930;2023-08-20T08:56:12;25.25;53.41
75357;HTU21D;63946;51.986;5.930;2023-08-20T08:58:41;25.30;53.32
75357;HTU21D;63946;51.986;5.930;2023-08-20T09:01:09;25.36;52.89
75357;HTU21D;63946;51.986;5.930;2023-08-20T09:03:38;25.42;52.33
75357;HTU21D;63946;51.986;5.930;2023-08-20T09:06:08;25.47;52.08
75357;HTU21D;63946;51.986;5.930;2023-08-20T09:08:38;25.56;51.93
75357;HTU21D;63946;51.986;5.930;2023-08-20T09:11:06;25.60;51.62
75357;HTU21D;63946;51.986;5.930;2023-08-20T09:13:37;25.66;51.42
75357;HTU21D;63946;51.986;5.930;2023-08-20T09:16:11;25.75;51.04
75357;HTU21D;63946;51.986;5.930;2023-08-20T09:18:41;25.83;50.89
75357;HTU21D;63946;51.986;5.930;2023-08-20T09:21:11;25.90;50.74
75357;HTU21D;63946;51.986;5.930;2023-08-20T09:23:40;25.93;51.28
75357;HTU21D;63946;51.986;5.930;2023-08-20T09:26:14;26.04;50.44
75357;HTU21D;63946;51.986;5.930;2023-08-20T09:28:45;26.15;49.64
75357;HTU21D;63946;51.986;5.930;2023-08-20T09:31:14;26.21;49.46
75357;HTU21D;63946;51.986;5.930;2023-08-20T09:33:50;26.26;49.08
75357;HTU21D;63946;51.986;5.930;2023-08-20T09:36:30;26.37;48.91
75357;HTU21D;63946;51.986;5.930;2023-08-20T09:39:01;26.49;48.82
75357;HTU21D;63946;51.986;5.930;2023-08-20T09:41:30;26.65;48.61
75357;HTU21D;63946;51.986;5.930;2023-08-20T09:43:59;26.78;48.16
75357;HTU21D;63946;51.986;5.930;2023-08-20T09:46:31;26.90;47.13
75357;HTU21D;63946;51.986;5.930;2023-08-20T09:49:00;26.98;46.61
75357;HTU21D;63946;51.986;5.930;2023-08-20T09:51:32;27.09;46.07
75357;HTU21D;63946;51.986;5.930;2023-08-20T09:54:14;27.21;46.03
75357;HTU21D;63946;51.986;5.930;2023-08-20T09:56:51;27.30;45.90
75357;HTU21D;63946;51.986;5.930;2023-08-20T09:59:22;27.40;45.75
75357;HTU21D;63946;51.986;5.930;2023-08-20T10:01:52;27.51;45.44
75357;HTU21D;63946;51.986;5.930;2023-08-20T10:04:21;27.56;45.51
75357;HTU21D;63946;51.986;5.930;2023-08-20T10:06:50;27.59;45.32
75357;HTU21D;63946;51.986;5.930;2023-08-20T10:09:20;27.67;46.01
75357;HTU21D;63946;51.986;5.930;2023-08-20T10:11:49;27.72;45.45
75357;HTU21D;63946;51.986;5.930;2023-08-20T10:14:19;27.79;45.29
75357;HTU21D;63946;51.986;5.930;2023-08-20T10:16:48;27.90;45.15
75357;HTU21D;63946;51.986;5.930;2023-08-20T10:19:17;27.98;44.59
75357;HTU21D;63946;51.986;5.930;2023-08-20T10:21:45;28.03;43.94
75357;HTU21D;63946;51.986;5.930;2023-08-20T10:24:19;28.06;43.62
75357;HTU21D;63946;51.986;5.930;2023-08-20T10:26:48;28.03;43.35
75357;HTU21D;63946;51.986;5.930;2023-08-20T10:29:37;28.06;43.61
75357;HTU21D;63946;51.986;5.930;2023-08-20T10:32:11;28.14;43.33
75357;HTU21D;63946;51.986;5.930;2023-08-20T10:34:43;28.23;43.35
75357;HTU21D;63946;51.986;5.930;2023-08-20T10:37:12;28.33;42.64
75357;HTU21D;63946;51.986;5.930;2023-08-20T10:39:41;28.44;42.49
75357;HTU21D;63946;51.986;5.930;2023-08-20T10:44:58;28.44;41.93
75357;HTU21D;63946;51.986;5.930;2023-08-20T10:47:55;28.50;41.33
75357;HTU21D;63946;51.986;5.930;2023-08-20T10:50:29;28.55;40.72
75357;HTU21D;63946;51.986;5.930;2023-08-20T10:53:03;28.64;40.22
75357;HTU21D;63946;51.986;5.930;2023-08-20T10:55:33;28.70;40.08
75357;HTU21D;63946;51.986;5.930;2023-08-20T10:58:04;28.74;39.96
75357;HTU21D;63946;51.986;5.930;2023-08-20T11:00:33;28.80;39.70
75357;HTU21D;63946;51.986;5.930;2023-08-20T11:03:02;28.84;39.78
75357;HTU21D;63946;51.986;5.930;2023-08-20T11:05:31;28.86;39.14
75357;HTU21D;63946;51.986;5.930;2023-08-20T11:08:00;28.84;39.03
75357;HTU21D;63946;51.986;5.930;2023-08-20T11:10:32;28.90;38.59
75357;HTU21D;63946;51.986;5.930;2023-08-20T11:13:01;28.91;38.36
75357;HTU21D;63946;51.986;5.930;2023-08-20T11:15:31;28.99;39.07
75357;HTU21D;63946;51.986;5.930;2023-08-20T11:18:01;29.11;38.90
75357;HTU21D;63946;51.986;5.930;2023-08-20T11:20:30;29.17;38.59
75357;HTU21D;63946;51.986;5.930;2023-08-20T11:23:02;29.27;38.44
75357;HTU21D;63946;51.986;5.930;2023-08-20T11:25:31;29.33;38.28
75357;HTU21D;63946;51.986;5.930;2023-08-20T11:28:00;29.37;37.90
75357;HTU21D;63946;51.986;5.930;2023-08-20T11:30:32;29.32;37.74
75357;HTU21D;63946;51.986;5.930;2023-08-20T11:33:01;29.35;37.73
75357;HTU21D;63946;51.986;5.930;2023-08-20T11:35:30;29.37;37.21
75357;HTU21D;63946;51.986;5.930;2023-08-20T11:38:00;29.36;36.82
75357;HTU21D;63946;51.986;5.930;2023-08-20T11:40:29;29.41;36.74
75357;HTU21D;63946;51.986;5.930;2023-08-20T11:42:58;29.45;36.90
75357;HTU21D;63946;51.986;5.930;2023-08-20T11:45:27;29.50;37.27
75357;HTU21D;63946;51.986;5.930;2023-08-20T11:47:56;29.59;37.33
75357;HTU21D;63946;51.986;5.930;2023-08-20T11:50:26;29.64;36.87
75357;HTU21D;63946;51.986;5.930;2023-08-20T11:52:55;29.58;36.44
75357;HTU21D;63946;51.986;5.930;2023-08-20T11:55:29;29.53;35.81
75357;HTU21D;63946;51.986;5.930;2023-08-20T11:57:58;29.56;36.04
75357;HTU21D;63946;51.986;5.930;2023-08-20T12:00:31;29.52;36.10
75357;HTU21D;63946;51.986;5.930;2023-08-20T12:03:08;29.53;35.84
75357;HTU21D;63946;51.986;5.930;2023-08-20T12:05:41;29.53;35.64
75357;HTU21D;63946;51.986;5.930;2023-08-20T12:08:15;29.50;35.82
75357;HTU21D;63946;51.986;5.930;2023-08-20T12:10:45;29.50;35.82
75357;HTU21D;63946;51.986;5.930;2023-08-20T12:13:13;29.51;35.79
75357;HTU21D;63946;51.986;5.930;2023-08-20T12:15:42;29.57;36.00
75357;HTU21D;63946;51.986;5.930;2023-08-20T12:18:11;29.59;35.63
75357;HTU21D;63946;51.986;5.930;2023-08-20T12:20:41;29.61;35.35
75357;HTU21D;63946;51.986;5.930;2023-08-20T12:23:12;29.62;35.73
75357;HTU21D;63946;51.986;5.930;2023-08-20T12:25:42;29.62;35.74
75357;HTU21D;63946;51.986;5.930;2023-08-20T12:28:11;29.68;35.07
75357;HTU21D;63946;51.986;5.930;2023-08-20T12:30:40;29.73;34.95
75357;HTU21D;63946;51.986;5.930;2023-08-20T12:33:08;29.72;34.57
75357;HTU21D;63946;51.986;5.930;2023-08-20T12:35:37;29.64;34.51
75357;HTU21D;63946;51.986;5.930;2023-08-20T12:38:06;29.62;34.94
75357;HTU21D;63946;51.986;5.930;2023-08-20T12:40:35;29.67;34.89
75357;HTU21D;63946;51.986;5.930;2023-08-20T12:43:04;29.74;35.06
75357;HTU21D;63946;51.986;5.930;2023-08-20T12:45:33;29.81;35.20
75357;HTU21D;63946;51.986;5.930;2023-08-20T12:48:02;29.88;34.70
75357;HTU21D;63946;51.986;5.930;2023-08-20T12:50:42;29.90;34.45
75357;HTU21D;63946;51.986;5.930;2023-08-20T12:53:13;29.89;34.53
75357;HTU21D;63946;51.986;5.930;2023-08-20T12:55:42;29.90;34.60
75357;HTU21D;63946;51.986;5.930;2023-08-20T12:58:11;29.90;34.93
75357;HTU21D;63946;51.986;5.930;2023-08-20T13:00:42;29.90;35.08
75357;HTU21D;63946;51.986;5.930;2023-08-20T13:03:12;29.90;35.09
75357;HTU21D;63946;51.986;5.930;2023-08-20T13:05:41;29.90;34.88
75357;HTU21D;63946;51.986;5.930;2023-08-20T13:08:10;29.92;35.31
75357;HTU21D;63946;51.986;5.930;2023-08-20T13:10:41;29.98;35.18
75357;HTU21D;63946;51.986;5.930;2023-08-20T13:13:10;30.11;35.12
75357;HTU21D;63946;51.986;5.930;2023-08-20T13:15:40;30.13;35.22
75357;HTU21D;63946;51.986;5.930;2023-08-20T13:18:09;30.08;34.70
75357;HTU21D;63946;51.986;5.930;2023-08-20T13:20:40;29.95;34.46
75357;HTU21D;63946;51.986;5.930;2023-08-20T13:23:09;29.90;34.56
75357;HTU21D;63946;51.986;5.930;2023-08-20T13:25:38;29.95;34.50
75357;HTU21D;63946;51.986;5.930;2023-08-20T13:28:08;29.85;34.69
75357;HTU21D;63946;51.986;5.930;2023-08-20T13:30:37;29.83;34.82
75357;HTU21D;63946;51.986;5.930;2023-08-20T13:33:06;29.90;35.15
75357;HTU21D;63946;51.986;5.930;2023-08-20T13:35:35;29.91;35.08
75357;HTU21D;63946;51.986;5.930;2023-08-20T13:38:05;29.85;34.51
75357;HTU21D;63946;51.986;5.930;2023-08-20T13:40:35;29.81;34.52
75357;HTU21D;63946;51.986;5.930;2023-08-20T13:43:04;29.87;34.76
75357;HTU21D;63946;51.986;5.930;2023-08-20T13:45:35;29.89;34.86
75357;HTU21D;63946;51.986;5.930;2023-08-20T13:48:05;29.86;34.86
75357;HTU21D;63946;51.986;5.930;2023-08-20T13:50:34;29.89;34.82
75357;HTU21D;63946;51.986;5.930;2023-08-20T13:53:03;29.93;34.79
75357;HTU21D;63946;51.986;5.930;2023-08-20T13:55:37;29.90;34.59
75357;HTU21D;63946;51.986;5.930;2023-08-20T13:58:06;29.94;34.46
75357;HTU21D;63946;51.986;5.930;2023-08-20T14:00:38;29.91;34.37
75357;HTU21D;63946;51.986;5.930;2023-08-20T14:03:11;29.87;34.57
75357;HTU21D;63946;51.986;5.930;2023-08-20T14:05:40;29.89;34.58
75357;HTU21D;63946;51.986;5.930;2023-08-20T14:08:10;29.85;34.34
75357;HTU21D;63946;51.986;5.930;2023-08-20T14:10:39;29.78;34.62
75357;HTU21D;63946;51.986;5.930;2023-08-20T14:13:08;29.78;34.96
75357;HTU21D;63946;51.986;5.930;2023-08-20T14:15:37;29.71;35.15
75357;HTU21D;63946;51.986;5.930;2023-08-20T14:18:07;29.58;35.36
75357;HTU21D;63946;51.986;5.930;2023-08-20T14:20:38;29.58;34.88
75357;HTU21D;63946;51.986;5.930;2023-08-20T14:23:09;29.63;34.64
75357;HTU21D;63946;51.986;5.930;2023-08-20T14:25:41;29.63;35.03
75357;HTU21D;63946;51.986;5.930;2023-08-20T14:28:10;29.64;34.68
75357;HTU21D;63946;51.986;5.930;2023-08-20T14:30:43;29.66;34.53
75357;HTU21D;63946;51.986;5.930;2023-08-20T14:33:18;29.63;34.18
75357;HTU21D;63946;51.986;5.930;2023-08-20T14:35:53;29.54;34.34
75357;HTU21D;63946;51.986;5.930;2023-08-20T14:38:23;29.43;34.34
75357;HTU21D;63946;51.986;5.930;2023-08-20T14:41:01;29.38;34.48
75357;HTU21D;63946;51.986;5.930;2023-08-20T14:43:32;29.34;34.18
75357;HTU21D;63946;51.986;5.930;2023-08-20T14:46:03;29.33;34.39
75357;HTU21D;63946;51.986;5.930;2023-08-20T14:48:33;29.36;34.61
75357;HTU21D;63946;51.986;5.930;2023-08-20T14:51:12;29.39;34.87
75357;HTU21D;63946;51.986;5.930;2023-08-20T14:53:44;29.38;34.60
75357;HTU21D;63946;51.986;5.930;2023-08-20T14:56:18;29.39;34.35
75357;HTU21D;63946;51.986;5.930;2023-08-20T14:59:02;29.22;34.53
75357;HTU21D;63946;51.986;5.930;2023-08-20T15:01:53;29.19;35.42
75357;HTU21D;63946;51.986;5.930;2023-08-20T15:04:22;29.23;35.50
75357;HTU21D;63946;51.986;5.930;2023-08-20T15:06:51;29.23;35.45
75357;HTU21D;63946;51.986;5.930;2023-08-20T15:09:32;29.27;35.44
75357;HTU21D;63946;51.986;5.930;2023-08-20T15:12:02;29.28;35.02
75357;HTU21D;63946;51.986;5.930;2023-08-20T15:14:40;29.22;35.05
75357;HTU21D;63946;51.986;5.930;2023-08-20T15:17:12;29.20;35.32
75357;HTU21D;63946;51.986;5.930;2023-08-20T15:19:48;29.14;35.60
75357;HTU21D;63946;51.986;5.930;2023-08-20T15:22:22;29.07;35.59
75357;HTU21D;63946;51.986;5.930;2023-08-20T15:24:52;29.06;35.63
75357;HTU21D;63946;51.986;5.930;2023-08-20T15:27:25;28.94;35.50
75357;HTU21D;63946;51.986;5.930;2023-08-20T15:29:54;28.73;35.93
75357;HTU21D;63946;51.986;5.930;2023-08-20T15:32:23;28.69;36.24
75357;HTU21D;63946;51.986;5.930;2023-08-20T15:35:03;28.73;36.34
75357;HTU21D;63946;51.986;5.930;2023-08-20T15:37:33;28.67;36.50
75357;HTU21D;63946;51.986;5.930;2023-08-20T15:40:05;28.54;36.62
75357;HTU21D;63946;51.986;5.930;2023-08-20T15:42:45;28.46;37.00
75357;HTU21D;63946;51.986;5.930;2023-08-20T15:45:17;28.45;36.78
75357;HTU21D;63946;51.986;5.930;2023-08-20T15:47:50;28.40;36.60
75357;HTU21D;63946;51.986;5.930;2023-08-20T15:50:21;28.33;36.61
75357;HTU21D;63946;51.986;5.930;2023-08-20T15:52:53;28.26;36.91
75357;HTU21D;63946;51.986;5.930;2023-08-20T15:55:25;28.13;37.23
75357;HTU21D;63946;51.986;5.930;2023-08-20T15:58:01;28.03;37.46
75357;HTU21D;63946;51.986;5.930;2023-08-20T16:00:33;27.95;38.08
75357;HTU21D;63946;51.986;5.930;2023-08-20T16:03:03;27.87;38.12
75357;HTU21D;63946;51.986;5.930;2023-08-20T16:05:34;27.83;38.17
75357;HTU21D;63946;51.986;5.930;2023-08-20T16:08:09;27.84;38.03
75357;HTU21D;63946;51.986;5.930;2023-08-20T16:10:40;27.80;38.19
75357;HTU21D;63946;51.986;5.930;2023-08-20T16:13:25;27.78;38.43
75357;HTU21D;63946;51.986;5.930;2023-08-20T16:15:54;27.73;38.53
75357;HTU21D;63946;51.986;5.930;2023-08-20T16:18:28;27.64;38.36
75357;HTU21D;63946;51.986;5.930;2023-08-20T16:21:06;27.61;38.96
75357;HTU21D;63946;51.986;5.930;2023-08-20T16:23:49;27.61;39.10
75357;HTU21D;63946;51.986;5.930;2023-08-20T16:26:29;27.64;39.02
75357;HTU21D;63946;51.986;5.930;2023-08-20T16:29:08;27.57;38.95
75357;HTU21D;63946;51.986;5.930;2023-08-20T16:32:03;27.54;39.14
75357;HTU21D;63946;51.986;5.930;2023-08-20T16:34:45;27.46;39.32
75357;HTU21D;63946;51.986;5.930;2023-08-20T16:38:02;27.43;39.25
75357;HTU21D;63946;51.986;5.930;2023-08-20T16:40:57;27.31;38.95
75357;HTU21D;63946;51.986;5.930;2023-08-20T16:43:51;27.11;39.46
75357;HTU21D;63946;51.986;5.930;2023-08-20T16:46:33;27.06;39.72
75357;HTU21D;63946;51.986;5.930;2023-08-20T16:49:20;27.09;39.76
75357;HTU21D;63946;51.986;5.930;2023-08-20T16:51:55;27.15;39.81
75357;HTU21D;63946;51.986;5.930;2023-08-20T16:54:37;27.12;39.79
75357;HTU21D;63946;51.986;5.930;2023-08-20T16:57:06;27.06;39.81
75357;HTU21D;63946;51.986;5.930;2023-08-20T16:59:44;26.99;40.13
75357;HTU21D;63946;51.986;5.930;2023-08-20T17:02:14;26.95;40.26
75357;HTU21D;63946;51.986;5.930;2023-08-20T17:04:43;26.94;40.54
75357;HTU21D;63946;51.986;5.930;2023-08-20T17:07:15;26.94;40.68
75357;HTU21D;63946;51.986;5.930;2023-08-20T17:09:44;26.90;40.75
75357;HTU21D;63946;51.986;5.930;2023-08-20T17:12:14;26.84;40.94
75357;HTU21D;63946;51.986;5.930;2023-08-20T17:14:54;26.81;41.33
75357;HTU21D;63946;51.986;5.930;2023-08-20T17:17:30;26.72;41.61
75357;HTU21D;63946;51.986;5.930;2023-08-20T17:20:01;26.65;41.69
75357;HTU21D;63946;51.986;5.930;2023-08-20T17:22:33;26.57;41.76
75357;HTU21D;63946;51.986;5.930;2023-08-20T17:25:02;26.49;42.03
75357;HTU21D;63946;51.986;5.930;2023-08-20T17:27:38;26.42;42.22
75357;HTU21D;63946;51.986;5.930;2023-08-20T17:30:07;26.34;42.37
75357;HTU21D;63946;51.986;5.930;2023-08-20T17:32:44;26.28;42.82
75357;HTU21D;63946;51.986;5.930;2023-08-20T17:35:20;26.25;43.08
75357;HTU21D;63946;51.986;5.930;2023-08-20T17:37:52;26.21;43.20
75357;HTU21D;63946;51.986;5.930;2023-08-20T17:40:24;26.16;43.39
75357;HTU21D;63946;51.986;5.930;2023-08-20T17:42:53;26.11;43.58
75357;HTU21D;63946;51.986;5.930;2023-08-20T17:45:22;26.07;43.72
75357;HTU21D;63946;51.986;5.930;2023-08-20T17:47:58;26.04;43.73
75357;HTU21D;63946;51.986;5.930;2023-08-20T17:50:27;25.96;44.02
75357;HTU21D;63946;51.986;5.930;2023-08-20T17:52:59;25.84;44.32
75357;HTU21D;63946;51.986;5.930;2023-08-20T17:55:33;25.79;44.59
75357;HTU21D;63946;51.986;5.930;2023-08-20T17:58:05;25.75;44.78
75357;HTU21D;63946;51.986;5.930;2023-08-20T18:00:34;25.69;44.82
75357;HTU21D;63946;51.986;5.930;2023-08-20T18:03:12;25.64;45.03
75357;HTU21D;63946;51.986;5.930;2023-08-20T18:05:54;25.58;44.90
75357;HTU21D;63946;51.986;5.930;2023-08-20T18:08:26;25.51;44.94
75357;HTU21D;63946;51.986;5.930;2023-08-20T18:10:55;25.45;45.03
75357;HTU21D;63946;51.986;5.930;2023-08-20T18:13:25;25.38;45.16
75357;HTU21D;63946;51.986;5.930;2023-08-20T18:15:54;25.32;45.27
75357;HTU21D;63946;51.986;5.930;2023-08-20T18:18:26;25.27;45.48
75357;HTU21D;63946;51.986;5.930;2023-08-20T18:21:03;25.18;45.74
75357;HTU21D;63946;51.986;5.930;2023-08-20T18:23:32;25.16;45.76
75357;HTU21D;63946;51.986;5.930;2023-08-20T18:26:03;25.14;45.78
75357;HTU21D;63946;51.986;5.930;2023-08-20T18:28:32;25.10;45.89
75357;HTU21D;63946;51.986;5.930;2023-08-20T18:31:02;25.05;45.87
75357;HTU21D;63946;51.986;5.930;2023-08-20T18:33:31;25.01;45.98
75357;HTU21D;63946;51.986;5.930;2023-08-20T18:36:01;24.97;46.12
75357;HTU21D;63946;51.986;5.930;2023-08-20T18:38:47;24.92;46.19
75357;HTU21D;63946;51.986;5.930;2023-08-20T18:41:16;24.85;46.29
75357;HTU21D;63946;51.986;5.930;2023-08-20T18:43:47;24.79;46.38
75357;HTU21D;63946;51.986;5.930;2023-08-20T18:46:16;24.74;46.53
75357;HTU21D;63946;51.986;5.930;2023-08-20T18:48:45;24.73;46.64
75357;HTU21D;63946;51.986;5.930;2023-08-20T18:51:21;24.66;46.81
75357;HTU21D;63946;51.986;5.930;2023-08-20T18:53:50;24.61;47.12
75357;HTU21D;63946;51.986;5.930;2023-08-20T18:56:19;24.59;47.10
75357;HTU21D;63946;51.986;5.930;2023-08-20T18:58:50;24.60;47.09
75357;HTU21D;63946;51.986;5.930;2023-08-20T19:01:19;24.56;47.06
75357;HTU21D;63946;51.986;5.930;2023-08-20T19:03:51;24.51;47.07
75357;HTU21D;63946;51.986;5.930;2023-08-20T19:06:20;24.47;47.33
75357;HTU21D;63946;51.986;5.930;2023-08-20T19:08:49;24.45;47.51
75357;HTU21D;63946;51.986;5.930;2023-08-20T19:11:18;24.36;47.54
75357;HTU21D;63946;51.986;5.930;2023-08-20T19:13:47;24.30;47.71
75357;HTU21D;63946;51.986;5.930;2023-08-20T19:16:16;24.23;48.08
75357;HTU21D;63946;51.986;5.930;2023-08-20T19:18:45;24.15;48.34
75357;HTU21D;63946;51.986;5.930;2023-08-20T19:21:18;24.11;48.49
75357;HTU21D;63946;51.986;5.930;2023-08-20T19:23:47;24.03;48.77
75357;HTU21D;63946;51.986;5.930;2023-08-20T19:26:22;24.01;48.94
75357;HTU21D;63946;51.986;5.930;2023-08-20T19:28:51;23.95;49.11
75357;HTU21D;63946;51.986;5.930;2023-08-20T19:31:20;23.94;49.30
75357;HTU21D;63946;51.986;5.930;2023-08-20T19:33:52;23.95;49.54
75357;HTU21D;63946;51.986;5.930;2023-08-20T19:36:26;23.94;49.64
75357;HTU21D;63946;51.986;5.930;2023-08-20T19:39:03;23.88;49.91
75357;HTU21D;63946;51.986;5.930;2023-08-20T19:41:55;23.85;50.22
75357;HTU21D;63946;51.986;5.930;2023-08-20T19:44:48;23.81;50.42
75357;HTU21D;63946;51.986;5.930;2023-08-20T19:47:19;23.82;50.40
75357;HTU21D;63946;51.986;5.930;2023-08-20T19:49:48;23.80;50.49
75357;HTU21D;63946;51.986;5.930;2023-08-20T19:52:20;23.77;50.62
75357;HTU21D;63946;51.986;5.930;2023-08-20T19:54:51;23.75;50.71
75357;HTU21D;63946;51.986;5.930;2023-08-20T19:57:24;23.71;50.99
75357;HTU21D;63946;51.986;5.930;2023-08-20T19:59:53;23.69;51.12
75357;HTU21D;63946;51.986;5.930;2023-08-20T20:02:22;23.66;51.17
75357;HTU21D;63946;51.986;5.930;2023-08-20T20:04:51;23.61;51.31
75357;HTU21D;63946;51.986;5.930;2023-08-20T20:07:20;23.53;51.37
75357;HTU21D;63946;51.986;5.930;2023-08-20T20:09:49;23.39;51.59
75357;HTU21D;63946;51.986;5.930;2023-08-20T20:12:17;23.38;51.72
75357;HTU21D;63946;51.986;5.930;2023-08-20T20:14:46;23.34;51.81
75357;HTU21D;63946;51.986;5.930;2023-08-20T20:17:15;23.27;51.85
75357;HTU21D;63946;51.986;5.930;2023-08-20T20:19:44;23.27;51.85
75357;HTU21D;63946;51.986;5.930;2023-08-20T20:22:18;23.23;51.91
75357;HTU21D;63946;51.986;5.930;2023-08-20T20:24:47;23.20;52.01
75357;HTU21D;63946;51.986;5.930;2023-08-20T20:27:16;23.14;52.04
75357;HTU21D;63946;51.986;5.930;2023-08-20T20:29:47;23.14;52.16
75357;HTU21D;63946;51.986;5.930;2023-08-20T20:32:18;23.10;52.19
75357;HTU21D;63946;51.986;5.930;2023-08-20T20:34:46;23.07;52.16
75357;HTU21D;63946;51.986;5.930;2023-08-20T20:37:15;23.02;52.34
75357;HTU21D;63946;51.986;5.930;2023-08-20T20:39:49;22.99;52.43
75357;HTU21D;63946;51.986;5.930;2023-08-20T20:42:18;22.92;52.72
75357;HTU21D;63946;51.986;5.930;2023-08-20T20:44:46;22.88;52.86
